createdAt,value
2023-01-31T00:01:40.876Z,100923.41
2023-01-31T00:04:12.333Z,100926.72
2023-01-31T00:06:50.734Z,100927.66
2023-01-31T00:09:17.731Z,100932.88
2023-01-31T00:11:44.748Z,100935.41
2023-01-31T00:14:19.143Z,100929.31
2023-01-31T00:16:46.092Z,100941.34
2023-01-31T00:19:12.979Z,100947.41
2023-01-31T00:21:43.629Z,100946.53
2023-01-31T00:24:13.623Z,100953.44
2023-01-31T00:26:40.809Z,100954.19
2023-01-31T00:29:07.724Z,100956.88
2023-01-31T00:31:35.651Z,100955.16
2023-01-31T00:34:03.237Z,100959.53
2023-01-31T00:36:33.648Z,100964.66
2023-01-31T00:39:04.692Z,100980.16
2023-01-31T00:41:32.859Z,100984.50
2023-01-31T00:44:00.164Z,100994.94
2023-01-31T00:46:27.835Z,100992.34
2023-01-31T00:48:56.302Z,100995.75
2023-01-31T00:51:26.747Z,100994.00
2023-01-31T00:53:54.387Z,101007.88
2023-01-31T00:56:23.655Z,101009.59
2023-01-31T00:58:51.048Z,101013.97
2023-01-31T01:01:26.179Z,101004.44
2023-01-31T01:03:54.807Z,101013.97
2023-01-31T01:06:22.619Z,101008.72
2023-01-31T01:08:51.483Z,101025.91
2023-01-31T01:11:23.090Z,101024.13
2023-01-31T01:13:50.987Z,101030.13
2023-01-31T01:16:34.412Z,101037.88
2023-01-31T01:19:06.273Z,101041.34
2023-01-31T01:21:39.054Z,101042.94
2023-01-31T01:24:09.324Z,101043.94
2023-01-31T01:26:39.293Z,101047.38
2023-01-31T01:29:06.439Z,101053.44
2023-01-31T01:31:34.566Z,101045.66
2023-01-31T01:34:13.440Z,101049.03
2023-01-31T01:36:41.092Z,101057.59
2023-01-31T01:39:11.684Z,101050.75
2023-01-31T01:41:39.940Z,101055.06
2023-01-31T01:44:44.846Z,101061.09
2023-01-31T01:47:20.077Z,101048.97
2023-01-31T01:50:04.191Z,101069.59
2023-01-31T01:52:36.425Z,101064.41
2023-01-31T01:55:29.289Z,101070.28
2023-01-31T01:58:14.240Z,101083.03
2023-01-31T02:00:42.835Z,101079.53
2023-01-31T02:03:09.999Z,101078.59
2023-01-31T02:05:57.851Z,101087.13
2023-01-31T02:08:30.061Z,101083.59
2023-01-31T02:11:03.373Z,101098.16
2023-01-31T02:13:31.443Z,101098.97
2023-01-31T02:15:58.739Z,101102.34
2023-01-31T02:18:26.847Z,101113.53
2023-01-31T02:21:44.563Z,101097.94
2023-01-31T02:24:29.788Z,101103.06
2023-01-31T02:27:31.316Z,101114.22
2023-01-31T02:30:10.111Z,101109.09
2023-01-31T02:33:06.976Z,101126.38
2023-01-31T02:35:57.329Z,101127.19
2023-01-31T02:39:14.901Z,101144.47
2023-01-31T02:42:28.572Z,101154.78
2023-01-31T02:45:10.056Z,101164.19
2023-01-31T02:48:17.687Z,101144.25
2023-01-31T02:51:19.093Z,101153.94
2023-01-31T02:53:52.287Z,101151.44
2023-01-31T02:56:24.510Z,101154.00
2023-01-31T02:58:58.223Z,101156.63
2023-01-31T03:01:31.978Z,101162.69
2023-01-31T03:04:19.216Z,101160.91
2023-01-31T03:07:05.332Z,101162.63
2023-01-31T03:09:41.676Z,101163.56
2023-01-31T03:12:36.546Z,101154.78
2023-01-31T03:15:51.034Z,101166.09
2023-01-31T03:18:25.304Z,101172.09
2023-01-31T03:21:05.721Z,101178.91
2023-01-31T03:23:35.892Z,101183.16
2023-01-31T03:26:06.695Z,101187.50
2023-01-31T03:28:37.191Z,101180.56
2023-01-31T03:31:21.856Z,101182.28
2023-01-31T03:33:55.572Z,101202.88
2023-01-31T03:36:33.784Z,101189.84
2023-01-31T03:39:39.590Z,101200.03
2023-01-31T03:42:21.010Z,101198.94
2023-01-31T03:45:04.771Z,101193.59
2023-01-31T03:47:39.115Z,101201.34
2023-01-31T03:50:14.333Z,101196.19
2023-01-31T03:52:51.421Z,101192.69
2023-01-31T03:55:26.872Z,101194.38
2023-01-31T03:57:56.593Z,101192.59
2023-01-31T04:00:25.645Z,101186.56
2023-01-31T04:03:12.595Z,101195.94
2023-01-31T04:05:40.858Z,101197.56
2023-01-31T04:08:08.011Z,101206.88
2023-01-31T04:10:35.537Z,101199.91
2023-01-31T04:13:02.524Z,101210.00
2023-01-31T04:15:29.631Z,101208.09
2023-01-31T04:17:56.518Z,101208.03
2023-01-31T04:20:23.414Z,101211.28
2023-01-31T04:22:50.328Z,101218.09
2023-01-31T04:25:17.589Z,101203.19
2023-01-31T04:27:44.458Z,101208.38
2023-01-31T04:30:12.016Z,101212.69
2023-01-31T04:32:39.001Z,101214.38
2023-01-31T04:35:06.127Z,101216.03
2023-01-31T04:37:33.059Z,101222.03
2023-01-31T04:39:59.953Z,101209.03
2023-01-31T04:42:26.880Z,101200.44
2023-01-31T04:44:53.797Z,101195.22
2023-01-31T04:47:20.707Z,101203.03
2023-01-31T04:49:47.622Z,101206.38
2023-01-31T04:52:14.563Z,101198.53
2023-01-31T04:54:41.960Z,101201.88
2023-01-31T04:57:09.092Z,101208.69
2023-01-31T04:59:36.172Z,101199.97
2023-01-31T05:02:03.098Z,101196.28
2023-01-31T05:04:30.007Z,101198.97
2023-01-31T05:06:56.900Z,101204.97
2023-01-31T05:09:24.944Z,101199.66
2023-01-31T05:11:51.890Z,101205.66
2023-01-31T05:14:21.044Z,101209.00
2023-01-31T05:16:48.005Z,101204.63
2023-01-31T05:19:16.134Z,101206.25
2023-01-31T05:21:55.638Z,101211.38
2023-01-31T05:24:22.939Z,101218.97
2023-01-31T05:26:52.812Z,101215.53
2023-01-31T05:29:19.976Z,101220.69
2023-01-31T05:31:51.790Z,101221.53
2023-01-31T05:34:18.687Z,101216.47
2023-01-31T05:36:45.734Z,101220.75
2023-01-31T05:39:12.612Z,101226.69
2023-01-31T05:41:39.578Z,101225.09
2023-01-31T05:44:06.509Z,101222.50
2023-01-31T05:46:33.406Z,101221.72
2023-01-31T05:49:00.384Z,101219.13
2023-01-31T05:51:27.544Z,101216.59
2023-01-31T05:53:54.959Z,101227.78
2023-01-31T05:56:23.155Z,101223.44
2023-01-31T05:58:51.026Z,101204.19
2023-01-31T06:01:22.053Z,101237.22
2023-01-31T06:03:49.897Z,101223.25
2023-01-31T06:06:17.513Z,101231.88
2023-01-31T06:08:44.424Z,101223.94
2023-01-31T06:11:12.552Z,101238.72
2023-01-31T06:13:43.495Z,101242.94
2023-01-31T06:16:10.768Z,101242.06
2023-01-31T06:18:37.804Z,101239.47
2023-01-31T06:21:04.839Z,101251.47
2023-01-31T06:23:31.860Z,101249.56
2023-01-31T06:25:59.355Z,101229.63
2023-01-31T06:28:26.379Z,101241.13
2023-01-31T06:30:53.354Z,101244.63
2023-01-31T06:33:21.550Z,101245.53
2023-01-31T06:35:49.675Z,101239.63
2023-01-31T06:38:16.618Z,101235.38
2023-01-31T06:40:43.548Z,101234.53
2023-01-31T06:43:10.449Z,101232.91
2023-01-31T06:45:37.865Z,101235.50
2023-01-31T06:48:04.897Z,101237.41
2023-01-31T06:50:31.816Z,101241.03
2023-01-31T06:52:59.351Z,101241.13
2023-01-31T06:55:26.704Z,101236.97
2023-01-31T06:57:55.338Z,101232.56
2023-01-31T07:00:24.703Z,101239.72
2023-01-31T07:02:53.028Z,101246.03
2023-01-31T07:05:20.920Z,101238.44
2023-01-31T07:07:49.724Z,101252.34
2023-01-31T07:10:17.747Z,101241.34
2023-01-31T07:12:44.659Z,101242.34
2023-01-31T07:15:11.757Z,101245.13
2023-01-31T07:17:38.676Z,101239.25
2023-01-31T07:20:06.339Z,101233.84
2023-01-31T07:22:33.384Z,101234.34
2023-01-31T07:25:00.478Z,101248.28
2023-01-31T07:27:27.548Z,101244.84
2023-01-31T07:29:54.517Z,101247.69
2023-01-31T07:32:21.479Z,101249.44
2023-01-31T07:34:48.532Z,101254.69
2023-01-31T07:37:15.445Z,101258.19
2023-01-31T07:39:42.314Z,101247.94
2023-01-31T07:42:09.242Z,101249.69
2023-01-31T07:44:37.272Z,101243.81
2023-01-31T07:47:04.281Z,101246.47
2023-01-31T07:49:31.159Z,101240.59
2023-01-31T07:51:58.065Z,101247.56
2023-01-31T07:54:25.019Z,101241.63
2023-01-31T07:56:51.916Z,101237.41
2023-01-31T07:59:18.905Z,101233.25
2023-01-31T08:02:04.420Z,101230.78
2023-01-31T08:04:31.337Z,101224.03
2023-01-31T08:07:01.396Z,101224.91
2023-01-31T08:09:28.360Z,101226.91
2023-01-31T08:11:55.280Z,101219.19
2023-01-31T08:14:26.224Z,101219.31
2023-01-31T08:16:53.244Z,101220.31
2023-01-31T08:19:20.138Z,101225.50
2023-01-31T08:21:47.082Z,101227.31
2023-01-31T08:24:14.003Z,101213.50
2023-01-31T08:26:43.536Z,101215.44
2023-01-31T08:29:10.549Z,101212.94
2023-01-31T08:31:37.541Z,101220.81
2023-01-31T08:34:07.073Z,101218.31
2023-01-31T08:36:34.241Z,101221.94
2023-01-31T08:39:01.335Z,101209.09
2023-01-31T08:41:30.441Z,101206.44
2023-01-31T08:43:58.984Z,101203.19
2023-01-31T08:46:30.823Z,101197.31
2023-01-31T08:48:58.904Z,101195.44
2023-01-31T08:51:26.029Z,101183.50
2023-01-31T08:53:53.932Z,101193.13
2023-01-31T08:56:26.159Z,101198.31
2023-01-31T08:58:54.441Z,101200.97
2023-01-31T09:01:22.217Z,101189.84
2023-01-31T09:03:50.653Z,101194.22
2023-01-31T09:06:21.276Z,101178.69
2023-01-31T09:08:48.339Z,101175.31
2023-01-31T09:11:18.971Z,101169.34
2023-01-31T09:13:51.264Z,101166.56
2023-01-31T09:16:19.556Z,101173.72
2023-01-31T09:18:46.838Z,101167.75
2023-01-31T09:21:18.600Z,101169.50
2023-01-31T09:23:46.184Z,101160.94
2023-01-31T09:26:14.843Z,101154.03
2023-01-31T09:28:43.528Z,101148.06
2023-01-31T09:31:17.961Z,101145.53
2023-01-31T09:33:44.937Z,101139.56
2023-01-31T09:36:15.417Z,101139.56
2023-01-31T09:38:42.366Z,101128.38
2023-01-31T09:41:38.942Z,101132.72
2023-01-31T09:44:28.628Z,101118.00
2023-01-31T09:47:13.385Z,101114.63
2023-01-31T09:49:56.337Z,101106.84
2023-01-31T09:52:23.480Z,101098.22
2023-01-31T09:54:50.389Z,101106.97
2023-01-31T09:57:51.019Z,101097.47
2023-01-31T10:00:53.462Z,101090.59
2023-01-31T10:04:10.582Z,101083.75
2023-01-31T10:06:58.879Z,101075.06
2023-01-31T10:09:43.563Z,101076.97
2023-01-31T10:12:17.717Z,101064.97
2023-01-31T10:14:55.934Z,101068.47
2023-01-31T10:17:36.491Z,101066.00
2023-01-31T10:20:34.569Z,101071.25
2023-01-31T10:23:08.243Z,101060.97
2023-01-31T10:25:59.753Z,101061.06
2023-01-31T10:28:43.643Z,101045.47
2023-01-31T10:31:45.210Z,101040.47
2023-01-31T10:34:34.690Z,101031.84
2023-01-31T10:37:25.581Z,101022.41
2023-01-31T10:40:05.572Z,101015.44
2023-01-31T10:42:38.560Z,101016.41
2023-01-31T10:45:20.432Z,101017.31
2023-01-31T10:47:54.290Z,101004.38
2023-01-31T10:50:38.717Z,100995.81
2023-01-31T10:53:43.988Z,100995.88
2023-01-31T10:56:37.913Z,100989.84
2023-01-31T10:59:17.370Z,100990.69
2023-01-31T11:01:44.232Z,100984.63
2023-01-31T11:04:38.096Z,100974.09
2023-01-31T11:07:05.945Z,100971.59
2023-01-31T11:09:38.207Z,100975.84
2023-01-31T11:12:07.423Z,100966.34
2023-01-31T11:14:36.329Z,100966.34
2023-01-31T11:17:12.574Z,100967.22
2023-01-31T11:19:46.118Z,100951.69
2023-01-31T11:22:31.226Z,100943.91
2023-01-31T11:25:01.701Z,100937.03
2023-01-31T11:27:42.348Z,100930.09
2023-01-31T11:30:30.709Z,100925.78
2023-01-31T11:32:57.843Z,100917.19
2023-01-31T11:35:31.544Z,100906.84
2023-01-31T11:38:22.083Z,100892.25
2023-01-31T11:40:49.210Z,100876.72
2023-01-31T11:43:19.117Z,100880.22
2023-01-31T11:46:02.557Z,100863.78
2023-01-31T11:48:40.499Z,100857.72
2023-01-31T11:51:08.121Z,100852.59
2023-01-31T11:53:47.549Z,100851.69
2023-01-31T11:56:28.271Z,100840.44
2023-01-31T11:58:58.943Z,100802.28
2023-01-31T12:01:27.107Z,100815.47
2023-01-31T12:04:03.681Z,100794.69
2023-01-31T12:06:38.608Z,100808.56
2023-01-31T12:09:24.309Z,100796.44
2023-01-31T12:11:58.617Z,100791.28
2023-01-31T12:14:41.175Z,100787.84
2023-01-31T12:17:14.257Z,100776.41
2023-01-31T12:20:27.088Z,100778.28
2023-01-31T12:23:37.527Z,100760.03
2023-01-31T12:26:31.005Z,100758.25
2023-01-31T12:29:25.734Z,100748.75
2023-01-31T12:32:29.805Z,100753.03
2023-01-31T12:35:31.033Z,100735.72
2023-01-31T12:38:22.030Z,100741.69
2023-01-31T12:41:21.288Z,100737.34
2023-01-31T12:44:16.133Z,100745.97
2023-01-31T12:47:23.068Z,100735.59
2023-01-31T12:50:52.756Z,100726.06
2023-01-31T12:53:41.056Z,100725.16
2023-01-31T12:56:30.236Z,100719.94
2023-01-31T12:59:33.989Z,100713.91
2023-01-31T13:02:39.244Z,100710.41
2023-01-31T13:05:27.738Z,100691.44
2023-01-31T13:08:03.391Z,100691.50
2023-01-31T13:10:37.119Z,100682.88
2023-01-31T13:13:10.181Z,100685.50
2023-01-31T13:15:47.765Z,100687.25
2023-01-31T13:18:15.677Z,100681.22
2023-01-31T13:21:07.857Z,100692.47
2023-01-31T13:23:49.436Z,100670.84
2023-01-31T13:26:29.860Z,100661.28
2023-01-31T13:29:23.606Z,100659.56
2023-01-31T13:32:04.766Z,100646.63
2023-01-31T13:34:57.274Z,100645.72
2023-01-31T13:37:26.670Z,100640.53
2023-01-31T13:40:03.853Z,100629.38
2023-01-31T13:42:33.121Z,100616.19
2023-01-31T13:45:07.793Z,100633.63
2023-01-31T13:47:52.757Z,100622.41
2023-01-31T13:50:42.909Z,100629.31
2023-01-31T13:53:26.766Z,100623.16
2023-01-31T13:55:54.267Z,100620.69
2023-01-31T13:58:30.268Z,100615.50
2023-01-31T14:01:14.072Z,100607.78
2023-01-31T14:04:12.181Z,100597.44
2023-01-31T14:07:02.822Z,100601.72
2023-01-31T14:09:37.115Z,100593.13
2023-01-31T14:12:09.951Z,100589.72
2023-01-31T14:14:39.296Z,100585.44
2023-01-31T14:17:29.258Z,100577.66
2023-01-31T14:19:56.099Z,100587.22
2023-01-31T14:22:39.614Z,100585.50
2023-01-31T14:25:15.391Z,100576.81
2023-01-31T14:28:03.358Z,100579.50
2023-01-31T14:30:47.761Z,100575.22
2023-01-31T14:33:20.327Z,100557.94
2023-01-31T14:36:20.170Z,100566.56
2023-01-31T14:39:38.002Z,100572.63
2023-01-31T14:43:02.142Z,100582.94
2023-01-31T14:45:56.717Z,100569.91
2023-01-31T14:49:06.039Z,100562.25
2023-01-31T14:52:05.482Z,100563.97
2023-01-31T14:54:56.796Z,100560.56
2023-01-31T14:57:30.573Z,100557.16
2023-01-31T15:00:19.336Z,100545.94
2023-01-31T15:03:08.117Z,100542.56
2023-01-31T15:05:34.915Z,100544.31
2023-01-31T15:08:09.285Z,100542.59
2023-01-31T15:11:06.114Z,100533.13
2023-01-31T15:13:39.289Z,100532.31
2023-01-31T15:16:22.276Z,100530.63
2023-01-31T15:19:01.304Z,100520.25
2023-01-31T15:21:33.328Z,100522.88
2023-01-31T15:24:00.761Z,100501.34
2023-01-31T15:26:32.864Z,100510.84
2023-01-31T15:29:03.289Z,100518.63
2023-01-31T15:31:38.070Z,100526.69
2023-01-31T15:34:16.357Z,100508.47
2023-01-31T15:37:01.019Z,100507.56
2023-01-31T15:39:36.184Z,100517.94
2023-01-31T15:42:29.462Z,100531.78
2023-01-31T15:45:21.811Z,100542.13
2023-01-31T15:48:09.084Z,100524.88
2023-01-31T15:50:35.981Z,100536.13
2023-01-31T15:53:14.515Z,100528.38
2023-01-31T15:55:42.407Z,100511.88
2023-01-31T15:58:19.197Z,100520.56
2023-01-31T16:00:57.474Z,100510.25
2023-01-31T16:03:28.969Z,100508.56
2023-01-31T16:05:59.035Z,100518.09
2023-01-31T16:08:34.127Z,100519.84
2023-01-31T16:11:06.158Z,100518.09
2023-01-31T16:13:38.802Z,100512.97
2023-01-31T16:16:10.352Z,100493.97
2023-01-31T16:18:38.429Z,100473.19
2023-01-31T16:21:27.683Z,100467.19
2023-01-31T16:24:11.073Z,100454.22
2023-01-31T16:26:40.666Z,100494.84
2023-01-31T16:29:15.014Z,100501.78
2023-01-31T16:31:49.497Z,100504.38
2023-01-31T16:34:26.803Z,100494.03
2023-01-31T16:37:01.653Z,100484.56
2023-01-31T16:39:33.303Z,100479.41
2023-01-31T16:42:01.086Z,100476.88
2023-01-31T16:44:35.541Z,100469.09
2023-01-31T16:47:04.403Z,100468.31
2023-01-31T16:49:36.325Z,100455.38
2023-01-31T16:52:16.351Z,100461.44
2023-01-31T16:54:50.084Z,100460.59
2023-01-31T16:57:38.184Z,100438.13
2023-01-31T17:00:31.477Z,100429.47
2023-01-31T17:03:00.386Z,100411.25
2023-01-31T17:05:41.326Z,100437.25
2023-01-31T17:08:17.162Z,100430.31
2023-01-31T17:10:47.355Z,100430.22
2023-01-31T17:13:19.455Z,100432.78
2023-01-31T17:15:46.584Z,100431.03
2023-01-31T17:18:13.519Z,100449.19
2023-01-31T17:20:43.020Z,100443.97
2023-01-31T17:23:11.596Z,100443.97
2023-01-31T17:25:38.700Z,100442.25
2023-01-31T17:28:06.792Z,100414.56
2023-01-31T17:30:34.630Z,100416.28
2023-01-31T17:33:01.680Z,100418.13
2023-01-31T17:35:42.062Z,100415.59
2023-01-31T17:38:08.972Z,100414.75
2023-01-31T17:40:38.737Z,100402.56
2023-01-31T17:43:06.403Z,100406.91
2023-01-31T17:45:33.351Z,100404.38
2023-01-31T17:48:00.431Z,100401.78
2023-01-31T17:50:28.916Z,100393.09
2023-01-31T17:52:56.442Z,100387.03
2023-01-31T17:55:25.071Z,100398.19
2023-01-31T17:57:52.381Z,100400.75
2023-01-31T18:00:21.371Z,100407.66
2023-01-31T18:02:48.512Z,100395.53
2023-01-31T18:05:20.482Z,100399.78
2023-01-31T18:07:51.636Z,100414.47
2023-01-31T18:10:18.609Z,100407.53
2023-01-31T18:12:45.537Z,100397.97
2023-01-31T18:15:12.992Z,100388.47
2023-01-31T18:17:39.892Z,100411.00
2023-01-31T18:20:07.576Z,100405.78
2023-01-31T18:22:35.886Z,100501.78
2023-01-31T18:25:05.504Z,100513.69
2023-01-31T18:27:32.472Z,100511.59
2023-01-31T18:29:59.358Z,100520.72
2023-01-31T18:32:26.293Z,100513.38
2023-01-31T18:34:53.255Z,100535.34
2023-01-31T18:37:20.331Z,100534.94
2023-01-31T18:39:52.232Z,100497.41
2023-01-31T18:42:20.616Z,100479.69
2023-01-31T18:44:47.757Z,100482.84
2023-01-31T18:47:16.095Z,100475.66
2023-01-31T18:49:43.417Z,100470.25
2023-01-31T18:52:10.460Z,100469.19
2023-01-31T18:54:37.976Z,100463.03
2023-01-31T18:57:05.199Z,100473.25
2023-01-31T18:59:34.708Z,100470.53
2023-01-31T19:02:01.694Z,100452.38
2023-01-31T19:04:28.616Z,100453.13
2023-01-31T19:06:55.497Z,100464.25
2023-01-31T19:09:22.526Z,100464.19
2023-01-31T19:11:49.516Z,100467.50
2023-01-31T19:14:16.506Z,100470.78
2023-01-31T19:16:44.797Z,100486.34
2023-01-31T19:19:12.141Z,100498.28
2023-01-31T19:21:39.357Z,100523.06
2023-01-31T19:24:11.381Z,100548.13
2023-01-31T19:26:38.396Z,100546.44
2023-01-31T19:29:08.055Z,100544.81
2023-01-31T19:31:36.330Z,100521.59
2023-01-31T19:34:06.351Z,100498.38
2023-01-31T19:36:39.397Z,100515.66
2023-01-31T19:39:10.766Z,100495.06
2023-01-31T19:41:38.310Z,100490.81
2023-01-31T19:44:05.629Z,100489.97
2023-01-31T19:46:35.817Z,100484.81
2023-01-31T19:49:02.995Z,100491.69
2023-01-31T19:51:30.004Z,100481.34
2023-01-31T19:53:59.996Z,100478.78
2023-01-31T19:56:27.708Z,100471.03
2023-01-31T19:58:54.621Z,100467.59
2023-01-31T20:01:22.381Z,100450.34
2023-01-31T20:03:50.138Z,100466.78
2023-01-31T20:06:20.796Z,100475.34
2023-01-31T20:08:53.199Z,100474.53
2023-01-31T20:11:20.561Z,100479.63
2023-01-31T20:13:53.065Z,100482.31
2023-01-31T20:16:21.781Z,100473.69
2023-01-31T20:18:49.910Z,100491.06
2023-01-31T20:21:20.114Z,100488.53
2023-01-31T20:23:48.490Z,100473.84
2023-01-31T20:26:17.435Z,100484.41
2023-01-31T20:28:44.802Z,100485.31
2023-01-31T20:31:15.163Z,100494.88
2023-01-31T20:33:42.615Z,100498.41
2023-01-31T20:36:09.904Z,100503.72
2023-01-31T20:38:40.127Z,100498.66
2023-01-31T20:41:08.954Z,100509.06
2023-01-31T20:43:36.631Z,100496.28
2023-01-31T20:46:10.375Z,100496.41
2023-01-31T20:48:37.923Z,100499.94
2023-01-31T20:51:05.748Z,100496.63
2023-01-31T20:53:33.036Z,100514.75
2023-01-31T20:56:02.915Z,100513.13
2023-01-31T20:58:33.063Z,100508.03
2023-01-31T21:01:00.582Z,100517.53
2023-01-31T21:03:28.200Z,100527.03
2023-01-31T21:05:59.354Z,100529.59
2023-01-31T21:08:27.402Z,100519.28
2023-01-31T21:10:57.226Z,100518.38
2023-01-31T21:13:25.621Z,100518.34
2023-01-31T21:15:55.845Z,100523.47
2023-01-31T21:18:27.381Z,100511.38
2023-01-31T21:20:54.561Z,100528.63
2023-01-31T21:23:21.454Z,100524.28
2023-01-31T21:25:48.424Z,100525.13
2023-01-31T21:28:15.346Z,100525.97
2023-01-31T21:30:42.486Z,100529.41
2023-01-31T21:33:09.562Z,100524.16
2023-01-31T21:35:36.455Z,100521.53
2023-01-31T21:38:03.347Z,100536.97
2023-01-31T21:40:30.249Z,100530.88
2023-01-31T21:42:57.137Z,100542.03
2023-01-31T21:45:42.123Z,100536.00
2023-01-31T21:48:29.386Z,100541.13
2023-01-31T21:50:57.767Z,100541.06
2023-01-31T21:53:27.484Z,100546.94
2023-01-31T21:56:03.857Z,100539.19
2023-01-31T21:58:30.792Z,100543.47
2023-01-31T22:01:09.880Z,100546.00
2023-01-31T22:03:38.571Z,100545.13
2023-01-31T22:06:08.892Z,100541.63
2023-01-31T22:08:36.326Z,100542.47
2023-01-31T22:11:14.624Z,100540.63
2023-01-31T22:13:46.621Z,100557.91
2023-01-31T22:16:15.512Z,100554.44
2023-01-31T22:18:43.977Z,100553.47
2023-01-31T22:21:15.062Z,100535.41
2023-01-31T22:23:48.457Z,100544.88
2023-01-31T22:26:22.857Z,100542.28
2023-01-31T22:28:50.266Z,100538.78
2023-01-31T22:31:18.171Z,100530.13
2023-01-31T22:33:45.397Z,100536.94
2023-01-31T22:36:14.601Z,100535.22
2023-01-31T22:38:42.510Z,100536.03
2023-01-31T22:41:13.027Z,100535.16
2023-01-31T22:43:42.901Z,100542.00
2023-01-31T22:46:15.057Z,100535.97
2023-01-31T22:48:42.085Z,100530.81
2023-01-31T22:51:13.513Z,100539.34
2023-01-31T22:53:41.347Z,100541.94
2023-01-31T22:56:26.667Z,100549.69
2023-01-31T22:58:58.802Z,100549.72
2023-01-31T23:01:29.450Z,100561.78
2023-01-31T23:03:59.657Z,100551.50
2023-01-31T23:06:27.858Z,100552.38
2023-01-31T23:08:55.672Z,100566.16
2023-01-31T23:11:23.534Z,100558.41
2023-01-31T23:13:50.646Z,100561.78
2023-01-31T23:16:43.026Z,100561.03
2023-01-31T23:19:10.928Z,100555.81
2023-01-31T23:21:42.532Z,100556.69
2023-01-31T23:24:10.389Z,100555.88
2023-01-31T23:26:37.305Z,100548.00
2023-01-31T23:29:04.219Z,100559.31
2023-01-31T23:31:32.520Z,100548.94
2023-01-31T23:34:00.584Z,100559.31
2023-01-31T23:36:28.149Z,100567.97
2023-01-31T23:38:55.094Z,100566.31
2023-01-31T23:41:22.021Z,100568.09
2023-01-31T23:43:48.882Z,100566.50
2023-01-31T23:46:16.003Z,100554.56
2023-01-31T23:48:43.347Z,100577.06
2023-01-31T23:51:10.269Z,100573.72
2023-01-31T23:53:37.150Z,100571.22
2023-01-31T23:56:04.145Z,100561.88
2023-01-31T23:58:31.129Z,100570.56
